Time;durP1;ratioP1;P1;durP2;ratioP2;P2;SDS_P1;SDS_P2;PMS_P1;PMS_P2;Temp;Humidity;BMP_temperature;BMP_pressure;BME280_temperature;BME280_humidity;BME280_pressure;Samples;Min_cycle;Max_cycle;Signal;HPM_P1;HPM_P2
2022/10/20 00:02:07;;;;;;;3.67;2.20;;;9.60;99.90;;;;;;4982143;28;20537;-80
2022/10/20 00:04:32;;;;;;;3.15;2.08;;;9.50;99.90;;;;;;5005143;28;20056;-80
2022/10/20 00:06:58;;;;;;;3.35;2.05;;;9.50;99.90;;;;;;5002487;28;20473;-79
2022/10/20 00:09:25;;;;;;;4.10;2.20;;;9.50;99.90;;;;;;5014495;28;20084;-79
2022/10/20 00:11:52;;;;;;;3.30;2.10;;;9.50;99.90;;;;;;4997282;28;20022;-79
2022/10/20 00:14:18;;;;;;;3.75;2.10;;;9.50;99.90;;;;;;4997988;28;20540;-80
2022/10/20 00:16:45;;;;;;;3.55;2.28;;;9.50;99.90;;;;;;5006349;28;20028;-80
2022/10/20 00:19:14;;;;;;;3.05;1.90;;;9.50;99.90;;;;;;5014359;28;20018;-81
2022/10/20 00:21:40;;;;;;;3.85;2.00;;;9.50;99.90;;;;;;4998753;28;20088;-80
2022/10/20 00:24:06;;;;;;;3.03;2.00;;;9.40;99.90;;;;;;4999489;28;20351;-81
2022/10/20 00:26:33;;;;;;;3.00;2.30;;;9.40;99.90;;;;;;5002438;28;20395;-80
2022/10/20 00:29:01;;;;;;;4.65;2.30;;;9.50;99.90;;;;;;4994029;28;20038;-78
2022/10/20 00:31:28;;;;;;;3.05;2.03;;;9.40;99.90;;;;;;5010396;28;20018;-79
2022/10/20 00:33:56;;;;;;;3.40;2.15;;;9.40;99.90;;;;;;5006874;28;20033;-79
2022/10/20 00:36:23;;;;;;;2.63;1.80;;;9.40;99.90;;;;;;4997771;28;20117;-80
2022/10/20 00:38:50;;;;;;;3.10;1.90;;;9.40;99.90;;;;;;5015403;28;20032;-78
2022/10/20 00:41:18;;;;;;;4.68;2.60;;;9.40;99.90;;;;;;5004215;28;20014;-79
2022/10/20 00:44:19;;;;;;;4.68;2.50;;;9.40;99.90;;;;;;5007842;28;20061;-79
2022/10/20 00:46:45;;;;;;;3.40;2.10;;;9.40;99.90;;;;;;4986750;28;20125;-80
2022/10/20 00:49:29;;;;;;;3.35;2.15;;;9.30;99.90;;;;;;4997653;28;20026;-80
2022/10/20 00:51:55;;;;;;;4.55;2.13;;;9.40;99.90;;;;;;4997674;28;20061;-80
2022/10/20 00:54:26;;;;;;;2.55;1.95;;;9.30;99.90;;;;;;4981354;28;20458;-79
2022/10/20 00:56:54;;;;;;;3.00;2.30;;;9.40;99.90;;;;;;4988852;28;20052;-79
2022/10/20 00:59:25;;;;;;;3.25;2.15;;;9.30;99.90;;;;;;4991658;28;20045;-79
2022/10/20 01:01:52;;;;;;;3.38;2.20;;;9.30;99.90;;;;;;4997724;28;20390;-79
2022/10/20 01:04:18;;;;;;;3.72;2.33;;;9.20;99.90;;;;;;4997133;28;20025;-79
2022/10/20 01:06:44;;;;;;;5.05;2.55;;;9.20;99.90;;;;;;4996682;28;20529;-80
2022/10/20 01:09:11;;;;;;;4.90;2.70;;;9.20;99.90;;;;;;5013795;28;20085;-79
2022/10/20 01:12:09;;;;;;;3.20;2.33;;;9.20;99.90;;;;;;4976745;28;20117;-79
2022/10/20 01:14:41;;;;;;;3.25;2.10;;;9.20;99.90;;;;;;4981848;28;20040;-79
2022/10/20 01:17:22;;;;;;;3.92;2.40;;;9.20;99.90;;;;;;4980439;28;20038;-79
2022/10/20 01:20:06;;;;;;;3.55;2.40;;;9.20;99.90;;;;;;5008883;28;20034;-80
2022/10/20 01:22:45;;;;;;;;;;;9.20;99.90;;;;;;4994816;28;20046;-78
2022/10/20 01:25:34;;;;;;;4.90;2.40;;;9.10;99.90;;;;;;4996131;28;20000;-79
2022/10/20 01:28:29;;;;;;;3.95;2.60;;;9.10;99.90;;;;;;4988514;28;20025;-79
2022/10/20 01:31:01;;;;;;;3.08;2.25;;;9.10;99.90;;;;;;4957529;28;20030;-79
2022/10/20 01:33:40;;;;;;;6.05;2.55;;;9.10;99.90;;;;;;4999815;28;20053;-78
2022/10/20 01:36:30;;;;;;;4.55;2.60;;;9.10;99.90;;;;;;5000110;28;20025;-80
2022/10/20 01:39:03;;;;;;;3.00;2.15;;;9.10;99.90;;;;;;5017375;28;20098;-79
2022/10/20 01:41:44;;;;;;;3.55;2.72;;;9.00;99.90;;;;;;5018276;28;20088;-80
2022/10/20 01:44:14;;;;;;;3.42;2.30;;;9.00;99.90;;;;;;5017857;28;20050;-79
2022/10/20 01:46:43;;;;;;;4.13;2.40;;;9.00;99.90;;;;;;5000544;28;20029;-79
2022/10/20 01:49:10;;;;;;;4.90;2.35;;;9.00;99.90;;;;;;4999977;28;20492;-79
2022/10/20 01:51:37;;;;;;;3.60;2.42;;;9.00;99.90;;;;;;5000082;28;20038;-79
2022/10/20 01:54:03;;;;;;;4.18;2.65;;;9.00;99.90;;;;;;4984211;28;20060;-79
2022/10/20 01:56:42;;;;;;;4.45;2.40;;;9.00;99.90;;;;;;5015850;28;20541;-79
2022/10/20 01:59:23;;;;;;;3.42;2.22;;;9.00;99.90;;;;;;5001261;28;20029;-79
2022/10/20 02:01:58;;;;;;;3.63;2.45;;;9.00;99.90;;;;;;5005444;28;20029;-78
2022/10/20 02:04:52;;;;;;;3.90;2.60;;;9.00;99.90;;;;;;5012809;28;20113;-80
2022/10/20 02:07:23;;;;;;;;;;;9.10;99.90;;;;;;4996965;28;20032;-79
2022/10/20 02:09:54;;;;;;;4.65;2.47;;;9.00;99.90;;;;;;5009485;28;20246;-79
2022/10/20 02:12:28;;;;;;;3.10;2.15;;;9.00;99.90;;;;;;5012444;28;20045;-79
2022/10/20 02:14:55;;;;;;;4.45;2.20;;;9.00;99.90;;;;;;5006000;28;20022;-79
2022/10/20 02:17:21;;;;;;;3.40;2.30;;;9.00;99.90;;;;;;5003189;28;20488;-80
2022/10/20 02:19:52;;;;;;;3.45;2.33;;;9.00;99.90;;;;;;5015885;28;20036;-79
2022/10/20 02:22:19;;;;;;;4.82;2.70;;;9.00;99.90;;;;;;5004217;28;20034;-80
2022/10/20 02:24:47;;;;;;;4.15;2.22;;;9.00;99.90;;;;;;5015930;28;20096;-79
2022/10/20 02:27:23;;;;;;;4.53;2.60;;;8.90;99.90;;;;;;5034636;28;20086;-78
2022/10/20 02:30:00;;;;;;;3.70;2.47;;;8.90;99.90;;;;;;5036613;28;20077;-80
2022/10/20 02:32:28;;;;;;;3.42;2.65;;;9.00;99.90;;;;;;5020468;28;20025;-79
2022/10/20 02:34:54;;;;;;;4.53;2.50;;;9.00;99.90;;;;;;5004629;28;20116;-80
2022/10/20 02:37:20;;;;;;;5.50;3.10;;;9.00;99.90;;;;;;5007712;28;20112;-80
2022/10/20 02:39:45;;;;;;;5.90;2.60;;;8.90;99.90;;;;;;5014592;28;20018;-78
2022/10/20 02:42:12;;;;;;;3.38;2.35;;;9.00;99.90;;;;;;5016410;28;20018;-79
2022/10/20 02:44:37;;;;;;;4.70;2.72;;;9.00;99.90;;;;;;5017232;28;20113;-79
2022/10/20 02:47:04;;;;;;;3.30;2.28;;;9.00;99.90;;;;;;5019392;28;20096;-79
2022/10/20 02:49:30;;;;;;;2.92;2.28;;;9.00;99.90;;;;;;4992315;28;20026;-79
2022/10/20 02:51:56;;;;;;;5.15;2.70;;;9.00;99.90;;;;;;5018943;28;20117;-79
2022/10/20 02:54:22;;;;;;;3.67;2.55;;;9.00;99.90;;;;;;5015790;28;20030;-80
2022/10/20 02:56:49;;;;;;;4.28;2.70;;;9.00;99.90;;;;;;5015337;28;20113;-79
2022/10/20 02:59:16;;;;;;;3.40;2.15;;;8.90;99.90;;;;;;5015145;28;20026;-79
2022/10/20 03:01:42;;;;;;;3.53;2.20;;;9.00;99.90;;;;;;5016401;28;20021;-78
2022/10/20 03:04:09;;;;;;;3.47;2.47;;;9.00;99.90;;;;;;5012161;28;20465;-79
2022/10/20 03:06:35;;;;;;;3.42;2.40;;;9.00;99.90;;;;;;5009005;28;20030;-79
2022/10/20 03:09:04;;;;;;;3.40;2.22;;;9.00;99.90;;;;;;5015026;28;20025;-79
2022/10/20 03:11:30;;;;;;;3.40;2.20;;;9.00;99.90;;;;;;4998610;28;20034;-79
2022/10/20 03:13:56;;;;;;;3.35;2.30;;;9.00;99.90;;;;;;5014588;28;20060;-79
2022/10/20 03:16:23;;;;;;;4.60;2.03;;;8.90;99.90;;;;;;5016146;28;20053;-79
2022/10/20 03:18:49;;;;;;;3.95;2.50;;;9.00;99.90;;;;;;5015702;28;20022;-79
2022/10/20 03:21:15;;;;;;;3.58;2.22;;;8.90;99.90;;;;;;4998093;28;20026;-79
2022/10/20 03:23:41;;;;;;;4.28;2.60;;;8.90;99.90;;;;;;4997907;28;20122;-79
2022/10/20 03:26:09;;;;;;;4.22;2.60;;;8.90;99.90;;;;;;4981865;28;20030;-79
2022/10/20 03:28:34;;;;;;;5.07;2.63;;;8.90;99.90;;;;;;4997961;28;20471;-79
2022/10/20 03:31:02;;;;;;;3.95;2.50;;;9.00;99.90;;;;;;4998319;28;20033;-79
2022/10/20 03:33:27;;;;;;;4.75;2.70;;;8.90;99.90;;;;;;5015355;28;20466;-80
2022/10/20 03:35:53;;;;;;;4.18;2.40;;;8.90;99.90;;;;;;4997488;28;20025;-79
2022/10/20 03:38:19;;;;;;;4.15;2.75;;;8.90;99.90;;;;;;4997847;28;20029;-80
2022/10/20 03:40:45;;;;;;;3.70;2.63;;;8.90;99.90;;;;;;4997625;28;20033;-80
2022/10/20 03:43:14;;;;;;;4.80;3.40;;;8.90;99.90;;;;;;4997435;28;20057;-79
2022/10/20 03:45:42;;;;;;;4.45;3.15;;;8.90;99.90;;;;;;4998074;28;20034;-79
2022/10/20 03:48:10;;;;;;;6.50;3.15;;;8.80;99.90;;;;;;5015251;28;20434;-79
2022/10/20 03:50:41;;;;;;;5.10;2.80;;;8.80;99.90;;;;;;5000089;28;20084;-79
2022/10/20 03:53:11;;;;;;;4.13;2.85;;;8.80;99.90;;;;;;4997418;28;20033;-79
2022/10/20 03:55:37;;;;;;;4.28;2.90;;;8.80;99.90;;;;;;4997619;28;20057;-79
2022/10/20 03:58:03;;;;;;;4.03;2.72;;;8.80;99.90;;;;;;4981451;28;20092;-79
2022/10/20 04:00:29;;;;;;;3.97;2.60;;;8.90;99.90;;;;;;4997367;28;20030;-79
2022/10/20 04:02:54;;;;;;;4.53;2.72;;;8.90;99.90;;;;;;4997094;28;20410;-79
2022/10/20 04:05:20;;;;;;;4.25;2.70;;;8.80;99.90;;;;;;4997487;28;20014;-79
2022/10/20 04:07:47;;;;;;;4.38;2.90;;;8.90;99.90;;;;;;4981471;28;20375;-79
2022/10/20 04:10:15;;;;;;;3.95;2.65;;;9.00;99.90;;;;;;5000799;28;20026;-79
2022/10/20 04:12:41;;;;;;;4.55;2.50;;;8.90;99.90;;;;;;5001627;28;20072;-79
2022/10/20 04:15:08;;;;;;;4.30;2.92;;;9.00;99.90;;;;;;5033187;28;20041;-79
2022/10/20 04:17:35;;;;;;;5.20;2.88;;;8.90;99.90;;;;;;5040236;28;20016;-79
2022/10/20 04:20:01;;;;;;;5.82;3.33;;;8.90;99.90;;;;;;5030196;28;20022;-79
2022/10/20 04:22:27;;;;;;;4.82;3.03;;;8.90;99.90;;;;;;5018025;28;20029;-79
2022/10/20 04:24:53;;;;;;;5.05;3.00;;;8.90;99.90;;;;;;5035671;28;20087;-80
2022/10/20 04:27:19;;;;;;;4.97;3.10;;;8.90;99.90;;;;;;5017842;28;20033;-78
2022/10/20 04:29:47;;;;;;;3.88;2.83;;;8.90;99.90;;;;;;5027248;28;20026;-79
2022/10/20 04:32:13;;;;;;;3.95;2.65;;;9.00;99.90;;;;;;5000346;28;20033;-79
2022/10/20 04:34:41;;;;;;;4.75;3.33;;;9.00;99.90;;;;;;5016873;28;20022;-78
2022/10/20 04:37:07;;;;;;;4.30;2.90;;;8.90;99.90;;;;;;5001368;28;20040;-80
2022/10/20 04:39:33;;;;;;;5.70;2.90;;;9.00;99.90;;;;;;4984822;28;20049;-80
2022/10/20 04:41:59;;;;;;;4.68;2.85;;;9.00;99.90;;;;;;5017560;28;20387;-79
2022/10/20 04:44:25;;;;;;;4.20;2.85;;;9.00;99.90;;;;;;5001902;28;20046;-80
2022/10/20 04:46:53;;;;;;;5.05;2.78;;;9.00;99.90;;;;;;4997118;28;20029;-80
2022/10/20 04:49:19;;;;;;;4.80;2.70;;;9.00;99.90;;;;;;4996969;28;20386;-80
2022/10/20 04:51:47;;;;;;;4.88;3.03;;;9.00;99.90;;;;;;4980817;28;20030;-79
2022/10/20 04:54:12;;;;;;;4.30;2.90;;;9.00;99.90;;;;;;4996891;28;20104;-79
2022/10/20 04:56:38;;;;;;;4.07;3.08;;;9.00;99.90;;;;;;5014779;28;20073;-80
2022/10/20 04:59:05;;;;;;;4.18;2.88;;;9.00;99.90;;;;;;4997082;28;20119;-79
2022/10/20 05:01:31;;;;;;;4.72;2.90;;;9.00;99.90;;;;;;4996129;28;20026;-79
2022/10/20 05:03:57;;;;;;;4.40;2.80;;;9.10;99.90;;;;;;4992169;28;20073;-79
2022/10/20 05:06:27;;;;;;;5.18;3.30;;;9.10;99.90;;;;;;4985859;28;20129;-80
2022/10/20 05:08:58;;;;;;;4.68;2.88;;;9.10;99.90;;;;;;4988391;28;20116;-80
2022/10/20 05:11:29;;;;;;;5.03;3.10;;;9.10;99.90;;;;;;4998596;28;20052;-80
2022/10/20 05:13:55;;;;;;;3.90;2.88;;;9.10;99.90;;;;;;4979147;28;20023;-80
2022/10/20 05:16:22;;;;;;;5.05;2.60;;;9.10;99.90;;;;;;4977701;28;20042;-80
2022/10/20 05:18:48;;;;;;;5.30;3.08;;;9.10;99.90;;;;;;4996316;28;20123;-80
2022/10/20 05:21:16;;;;;;;5.53;3.25;;;9.10;99.90;;;;;;4991193;28;20076;-80
2022/10/20 05:23:43;;;;;;;4.00;2.90;;;9.10;99.90;;;;;;5013677;28;20041;-80
2022/10/20 05:26:12;;;;;;;4.50;2.97;;;9.10;99.90;;;;;;4996504;28;20022;-80
2022/10/20 05:28:49;;;;;;;4.25;2.58;;;9.00;99.90;;;;;;4986753;28;20033;-80
2022/10/20 05:31:17;;;;;;;4.05;2.70;;;9.00;99.90;;;;;;4981555;28;20022;-80
2022/10/20 05:33:45;;;;;;;3.78;2.70;;;9.10;99.90;;;;;;4995958;28;20030;-80
2022/10/20 05:36:13;;;;;;;4.15;2.60;;;9.00;99.90;;;;;;5013670;28;20029;-79
2022/10/20 05:38:39;;;;;;;3.67;2.88;;;9.00;99.90;;;;;;4996274;28;20029;-79
2022/10/20 05:41:10;;;;;;;5.75;2.70;;;9.10;99.90;;;;;;4981967;28;20618;-79
2022/10/20 05:43:37;;;;;;;6.13;3.42;;;9.00;99.90;;;;;;4977603;28;20061;-79
2022/10/20 05:46:04;;;;;;;6.57;3.47;;;9.00;99.90;;;;;;5023879;28;20036;-79
2022/10/20 05:48:30;;;;;;;4.78;2.83;;;9.00;99.90;;;;;;5018234;28;20033;-79
2022/10/20 05:51:06;;;;;;;4.25;3.10;;;9.00;99.90;;;;;;4979434;28;20034;-79
2022/10/20 05:53:34;;;;;;;4.85;2.70;;;9.00;99.90;;;;;;4995755;28;20034;-78
2022/10/20 05:56:08;;;;;;;3.83;2.58;;;9.00;99.90;;;;;;4997997;28;20030;-79
2022/10/20 05:58:34;;;;;;;4.55;2.70;;;9.00;99.90;;;;;;4992772;28;20030;-80
2022/10/20 06:01:26;;;;;;;3.38;2.40;;;9.00;99.90;;;;;;4977498;28;20061;-80
2022/10/20 06:03:54;;;;;;;3.70;2.53;;;9.00;99.90;;;;;;4981609;28;20068;-80
2022/10/20 06:06:22;;;;;;;4.30;2.70;;;9.00;99.90;;;;;;4998263;28;20080;-80
2022/10/20 06:08:49;;;;;;;3.20;2.17;;;9.00;99.90;;;;;;5015204;28;20056;-80
2022/10/20 06:11:16;;;;;;;4.50;2.67;;;9.00;99.90;;;;;;5019446;28;20018;-78
2022/10/20 06:13:43;;;;;;;4.80;2.72;;;9.00;99.90;;;;;;5020729;28;20051;-79
2022/10/20 06:16:12;;;;;;;3.92;2.88;;;9.10;99.90;;;;;;5055504;28;20026;-79
2022/10/20 06:18:38;;;;;;;4.45;2.92;;;9.10;99.90;;;;;;5010636;28;20121;-79
2022/10/20 06:21:12;;;;;;;4.82;2.65;;;9.10;99.90;;;;;;5032887;28;20014;-79
2022/10/20 06:23:38;;;;;;;6.03;3.35;;;9.10;99.90;;;;;;5006137;28;20022;-80
2022/10/20 06:26:17;;;;;;;7.25;3.30;;;9.10;99.90;;;;;;4984292;28;20037;-79
2022/10/20 06:28:44;;;;;;;5.00;3.22;;;9.10;99.90;;;;;;4984289;28;20061;-79
2022/10/20 06:31:15;;;;;;;4.30;2.78;;;9.10;99.90;;;;;;5000496;28;20028;-80
2022/10/20 06:33:42;;;;;;;4.95;3.40;;;9.10;99.90;;;;;;5031628;28;20477;-80
2022/10/20 06:36:09;;;;;;;4.32;2.90;;;9.10;99.90;;;;;;5000847;28;20042;-79
2022/10/20 06:38:37;;;;;;;4.53;2.70;;;9.10;99.90;;;;;;4983740;28;20121;-79
2022/10/20 06:41:07;;;;;;;5.28;3.03;;;9.20;99.90;;;;;;4984751;28;20069;-79
2022/10/20 06:43:36;;;;;;;3.72;2.55;;;9.20;99.90;;;;;;5001814;28;20065;-80
2022/10/20 06:46:05;;;;;;;4.10;2.75;;;9.30;99.90;;;;;;5001987;28;20145;-81
2022/10/20 06:48:34;;;;;;;6.05;3.10;;;9.30;99.90;;;;;;5016568;28;20117;-80
2022/10/20 06:51:08;;;;;;;3.70;2.35;;;9.30;99.90;;;;;;5012386;28;20034;-80
2022/10/20 06:53:35;;;;;;;3.75;2.55;;;9.30;99.90;;;;;;4994376;28;20129;-80
2022/10/20 06:56:05;;;;;;;5.07;2.72;;;9.40;99.90;;;;;;4998859;28;20112;-80
2022/10/20 06:58:34;;;;;;;4.53;2.85;;;9.40;99.90;;;;;;4998246;28;20385;-80
2022/10/20 07:01:15;;;;;;;5.90;3.15;;;9.40;99.90;;;;;;4982228;28;20022;-80
2022/10/20 07:03:41;;;;;;;4.88;3.08;;;9.40;99.90;;;;;;4991528;28;20033;-79
2022/10/20 07:06:12;;;;;;;5.63;3.75;;;9.40;99.90;;;;;;4982318;28;20083;-79
2022/10/20 07:08:39;;;;;;;5.50;3.10;;;9.50;99.90;;;;;;4998678;28;20084;-80
2022/10/20 07:11:08;;;;;;;4.10;2.75;;;9.50;99.90;;;;;;4996931;28;20030;-80
2022/10/20 07:13:36;;;;;;;4.15;2.70;;;9.50;99.90;;;;;;5025647;28;20079;-78
2022/10/20 07:16:02;;;;;;;5.97;3.40;;;9.60;99.90;;;;;;4998467;28;20034;-80
2022/10/20 07:18:30;;;;;;;4.32;2.70;;;9.70;99.90;;;;;;5005593;28;20041;-80
2022/10/20 07:21:00;;;;;;;3.90;2.70;;;9.70;99.90;;;;;;4990865;28;20366;-80
2022/10/20 07:23:30;;;;;;;4.43;2.70;;;9.70;99.90;;;;;;4996925;28;20128;-80
2022/10/20 07:26:09;;;;;;;5.15;3.40;;;9.70;99.90;;;;;;4999058;28;20025;-79
2022/10/20 07:28:38;;;;;;;4.22;3.08;;;9.80;99.90;;;;;;4993315;28;20049;-80
2022/10/20 07:31:09;;;;;;;4.93;3.50;;;9.80;99.90;;;;;;4997824;28;20042;-80
2022/10/20 07:33:35;;;;;;;4.32;3.10;;;9.80;99.90;;;;;;4998451;28;20017;-80
2022/10/20 07:36:11;;;;;;;5.93;3.75;;;9.80;99.90;;;;;;4981986;28;20366;-79
2022/10/20 07:38:38;;;;;;;5.43;4.05;;;9.90;99.90;;;;;;4998062;28;20024;-79
2022/10/20 07:41:04;;;;;;;6.07;3.95;;;9.90;99.90;;;;;;4998206;28;20406;-79
2022/10/20 07:43:31;;;;;;;6.38;3.80;;;9.90;99.90;;;;;;5018878;28;20073;-80
2022/10/20 07:45:58;;;;;;;5.20;3.45;;;10.00;99.90;;;;;;4998067;28;20022;-79
2022/10/20 07:48:25;;;;;;;5.70;4.00;;;10.00;99.90;;;;;;4998174;28;20389;-79
2022/10/20 07:50:51;;;;;;;6.78;3.90;;;10.10;99.90;;;;;;5009919;28;20017;-79
2022/10/20 07:53:17;;;;;;;5.03;3.42;;;10.10;99.90;;;;;;4997419;28;20026;-79
2022/10/20 07:55:44;;;;;;;5.72;3.85;;;10.10;99.90;;;;;;4997164;28;20061;-79
2022/10/20 07:58:11;;;;;;;4.47;3.35;;;10.20;99.90;;;;;;4978516;28;20023;-79
2022/10/20 08:00:38;;;;;;;6.40;3.40;;;10.20;99.90;;;;;;4994651;28;20033;-80
2022/10/20 08:03:05;;;;;;;4.90;3.20;;;10.20;99.90;;;;;;5018826;28;20038;-78
2022/10/20 08:05:33;;;;;;;5.18;3.53;;;10.30;99.90;;;;;;5023839;28;20022;-78
2022/10/20 08:07:59;;;;;;;5.25;3.63;;;10.30;99.90;;;;;;5035799;28;20033;-79
2022/10/20 08:10:25;;;;;;;6.07;3.22;;;10.30;99.90;;;;;;5005591;28;20017;-79
2022/10/20 08:12:53;;;;;;;5.20;3.55;;;10.40;99.90;;;;;;5014446;28;20033;-79
2022/10/20 08:15:19;;;;;;;5.45;3.95;;;10.40;99.90;;;;;;5013435;28;20034;-81
2022/10/20 08:17:45;;;;;;;5.88;3.65;;;10.50;99.90;;;;;;4998683;28;20034;-80
2022/10/20 08:20:11;;;;;;;6.45;3.30;;;10.60;99.90;;;;;;5015754;28;20097;-79
2022/10/20 08:22:37;;;;;;;5.00;3.80;;;10.70;99.90;;;;;;4962538;28;20031;-80
2022/10/20 08:25:03;;;;;;;5.07;3.42;;;10.80;99.90;;;;;;4992284;28;20028;-80
2022/10/20 08:27:30;;;;;;;5.43;3.85;;;10.90;99.90;;;;;;5014795;28;20478;-80
2022/10/20 08:29:58;;;;;;;5.57;3.85;;;11.00;99.90;;;;;;4997951;28;20030;-80
2022/10/20 08:32:25;;;;;;;5.75;3.55;;;11.10;99.90;;;;;;5014660;28;20577;-80
2022/10/20 08:34:54;;;;;;;5.30;3.60;;;11.20;99.90;;;;;;5002174;28;20038;-80
2022/10/20 08:37:20;;;;;;;6.22;3.53;;;11.30;99.90;;;;;;5013827;28;20101;-80
2022/10/20 08:39:46;;;;;;;6.32;3.80;;;11.40;99.90;;;;;;4997120;28;20128;-79
2022/10/20 08:42:12;;;;;;;6.03;4.60;;;11.50;99.90;;;;;;4996881;28;20092;-80
2022/10/20 08:44:42;;;;;;;6.25;4.22;;;11.70;99.90;;;;;;4996058;28;20054;-80
2022/10/20 08:47:34;;;;;;;6.63;4.53;;;11.80;99.90;;;;;;4994602;28;20092;-79
2022/10/20 08:50:02;;;;;;;6.18;3.92;;;12.00;99.90;;;;;;4982029;28;20095;-80
2022/10/20 08:52:29;;;;;;;6.25;4.28;;;12.20;99.90;;;;;;4997050;28;20148;-80
2022/10/20 08:54:56;;;;;;;6.30;4.10;;;12.30;99.90;;;;;;5014345;28;20025;-81
2022/10/20 08:57:33;;;;;;;7.38;4.43;;;12.50;99.90;;;;;;5014199;28;20155;-80
2022/10/20 09:00:19;;;;;;;7.25;5.55;;;12.70;99.90;;;;;;4977597;28;20068;-80
2022/10/20 09:02:47;;;;;;;8.07;4.93;;;12.90;99.90;;;;;;5017212;28;20053;-80
2022/10/20 09:05:18;;;;;;;6.95;4.50;;;13.00;99.90;;;;;;4996290;28;20120;-80
2022/10/20 09:07:47;;;;;;;5.13;3.60;;;13.10;99.90;;;;;;4999902;28;20026;-80
2022/10/20 09:10:15;;;;;;;6.15;4.32;;;13.10;99.90;;;;;;5000181;28;20061;-80
2022/10/20 09:12:44;;;;;;;7.97;4.88;;;13.20;99.90;;;;;;5016899;28;20029;-81
2022/10/20 09:15:13;;;;;;;6.32;4.10;;;13.20;99.90;;;;;;4999971;28;20029;-81
2022/10/20 09:17:52;;;;;;;6.50;4.28;;;13.20;99.90;;;;;;5016320;28;20017;-81
2022/10/20 09:20:38;;;;;;;5.75;4.13;;;13.30;99.90;;;;;;5015564;28;20056;-81
2022/10/20 09:23:04;;;;;;;6.05;4.07;;;13.50;99.90;;;;;;5024493;28;20077;-80
2022/10/20 09:25:30;;;;;;;5.47;4.20;;;13.50;99.90;;;;;;5014090;28;20169;-80
2022/10/20 09:27:57;;;;;;;7.22;4.40;;;13.50;99.90;;;;;;5037201;28;20022;-80
2022/10/20 09:30:29;;;;;;;7.35;4.63;;;13.40;99.90;;;;;;5025640;28;20126;-81
2022/10/20 09:32:55;;;;;;;6.53;4.40;;;13.30;99.90;;;;;;4992992;28;20043;-81
2022/10/20 09:35:26;;;;;;;6.05;4.55;;;13.20;99.90;;;;;;5017083;28;20116;-80
2022/10/20 09:38:15;;;;;;;6.13;4.63;;;13.20;99.90;;;;;;5016768;28;20037;-80
2022/10/20 09:41:22;;;;;;;6.40;4.25;;;13.20;99.90;;;;;;5016143;28;20389;-81
2022/10/20 09:43:53;;;;;;;5.95;3.90;;;13.20;99.90;;;;;;4917703;29;20112;-81
2022/10/20 09:46:31;;;;;;;5.38;3.75;;;13.20;99.90;;;;;;4963283;28;20045;-81
2022/10/20 09:48:59;;;;;;;6.25;4.10;;;13.20;99.90;;;;;;4981775;28;20049;-81
2022/10/20 09:51:27;;;;;;;6.22;3.80;;;13.30;99.90;;;;;;5000500;28;20038;-81
2022/10/20 09:53:59;;;;;;;4.97;3.70;;;13.40;99.90;;;;;;4977763;28;20034;-80
2022/10/20 09:56:28;;;;;;;5.63;4.15;;;13.40;99.90;;;;;;4980631;28;20027;-81
2022/10/20 09:58:56;;;;;;;5.50;4.00;;;13.50;99.90;;;;;;4982202;28;20015;-82
2022/10/20 10:01:22;;;;;;;5.28;3.50;;;13.50;99.90;;;;;;4996620;28;20036;-80
2022/10/20 10:03:57;;;;;;;5.55;3.40;;;13.50;99.90;;;;;;5002320;28;20037;-81
2022/10/20 10:06:36;;;;;;;5.18;3.55;;;13.50;99.90;;;;;;5018196;28;20046;-81
2022/10/20 10:09:23;;;;;;;5.88;4.47;;;13.50;99.90;;;;;;4984017;28;20018;-80
2022/10/20 10:11:59;;;;;;;4.78;3.53;;;13.40;99.90;;;;;;4977637;28;20026;-80
2022/10/20 10:14:26;;;;;;;6.13;4.53;;;13.40;99.90;;;;;;5004018;28;20044;-80
2022/10/20 10:16:53;;;;;;;7.43;5.18;;;13.40;99.90;;;;;;4980521;28;20138;-80
2022/10/20 10:19:25;;;;;;;7.22;4.82;;;13.40;99.90;;;;;;4980536;28;20467;-80
2022/10/20 10:21:54;;;;;;;6.40;4.85;;;13.40;99.90;;;;;;4978650;28;20026;-80
2022/10/20 10:24:38;;;;;;;7.10;4.30;;;13.40;99.90;;;;;;4994330;28;20157;-80
2022/10/20 10:27:18;;;;;;;6.43;4.20;;;13.50;99.90;;;;;;4995024;28;20019;-82
2022/10/20 10:29:44;;;;;;;6.38;4.57;;;13.50;99.90;;;;;;4979582;28;20382;-80
2022/10/20 10:32:20;;;;;;;6.57;4.15;;;13.50;99.90;;;;;;4978349;28;20019;-80
2022/10/20 10:35:14;;;;;;;6.68;4.25;;;13.60;99.90;;;;;;4997657;28;20032;-79
2022/10/20 10:37:41;;;;;;;;;;;13.60;99.90;;;;;;4988199;28;20023;-79
2022/10/20 10:40:21;;;;;;;6.60;5.00;;;13.60;99.90;;;;;;4982149;28;19912;-80
2022/10/20 10:43:09;;;;;;;6.07;4.80;;;13.70;99.90;;;;;;4974239;28;20021;-80
2022/10/20 10:45:56;;;;;;;10.20;6.95;;;13.70;99.90;;;;;;5021473;28;20038;-80
2022/10/20 10:48:36;;;;;;;8.98;6.47;;;13.70;99.90;;;;;;4982613;28;20385;-81
2022/10/20 10:51:13;;;;;;;8.45;6.43;;;13.70;99.90;;;;;;5019366;28;20482;-80
2022/10/20 10:54:00;;;;;;;8.98;6.13;;;13.80;99.90;;;;;;4998724;28;20096;-79
2022/10/20 10:56:48;;;;;;;8.93;6.00;;;13.90;99.90;;;;;;4998262;28;20022;-81
2022/10/20 10:59:34;;;;;;;9.45;6.10;;;13.90;99.90;;;;;;5000926;28;20071;-80
2022/10/20 11:02:21;;;;;;;8.90;5.95;;;14.00;99.90;;;;;;5000164;28;20048;-81
2022/10/20 11:05:06;;;;;;;7.85;6.10;;;14.00;99.90;;;;;;5000434;28;20046;-81
2022/10/20 11:08:09;;;;;;;7.63;5.82;;;13.90;99.90;;;;;;4995909;28;20045;-81
2022/10/20 11:11:12;;;;;;;6.90;5.53;;;13.80;99.90;;;;;;5003119;28;20025;-80
2022/10/20 11:13:56;;;;;;;8.23;5.43;;;13.70;99.90;;;;;;4960826;28;20040;-80
2022/10/20 11:17:05;;;;;;;7.38;5.15;;;13.60;99.90;;;;;;4994658;28;20046;-80
2022/10/20 11:19:50;;;;;;;7.03;5.47;;;13.60;99.90;;;;;;4996383;28;20032;-80
2022/10/20 11:22:34;;;;;;;6.57;5.03;;;13.50;99.90;;;;;;4998531;28;20096;-80
2022/10/20 11:25:37;;;;;;;6.38;4.90;;;13.50;99.90;;;;;;5019431;28;20469;-80
2022/10/20 11:28:20;;;;;;;9.10;4.70;;;13.40;99.90;;;;;;4996777;28;20057;-79
2022/10/20 11:30:46;;;;;;;8.38;5.97;;;13.40;99.90;;;;;;4997750;28;20041;-79
2022/10/20 11:33:21;;;;;;;9.38;6.63;;;13.40;99.90;;;;;;5016171;28;20026;-79
2022/10/20 11:36:00;;;;;;;9.57;6.68;;;13.40;99.90;;;;;;4993444;28;20032;-81
2022/10/20 11:38:42;;;;;;;7.75;6.40;;;13.30;99.90;;;;;;4993446;28;20089;-79
2022/10/20 11:42:01;;;;;;;9.07;7.47;;;13.20;99.90;;;;;;5022095;28;20029;-80
2022/10/20 11:44:39;;;;;;;10.13;5.95;;;13.20;99.90;;;;;;4978745;28;20125;-79
2022/10/20 11:47:12;;;;;;;8.82;6.53;;;13.10;99.90;;;;;;5014670;28;20049;-81
2022/10/20 11:49:44;;;;;;;9.57;6.40;;;13.10;99.90;;;;;;4983657;28;20382;-80
2022/10/20 11:52:28;;;;;;;12.52;8.07;;;13.10;99.90;;;;;;4992316;28;20021;-80
2022/10/20 11:55:09;;;;;;;10.40;7.25;;;13.00;99.90;;;;;;5001337;28;20067;-80
2022/10/20 11:57:56;;;;;;;10.25;8.18;;;13.00;99.90;;;;;;5002550;28;20022;-81
2022/10/20 12:00:25;;;;;;;10.75;7.50;;;12.90;99.90;;;;;;5003948;28;20144;-80
2022/10/20 12:03:09;;;;;;;9.77;7.15;;;12.90;99.90;;;;;;5019299;28;20504;-80
2022/10/20 12:05:49;;;;;;;10.50;6.43;;;12.90;99.90;;;;;;5011606;28;20034;-81
2022/10/20 12:08:45;;;;;;;10.32;7.22;;;12.90;99.90;;;;;;5016954;28;20089;-81
2022/10/20 12:11:25;;;;;;;9.23;7.20;;;12.90;99.90;;;;;;4997986;28;20109;-81
2022/10/20 12:13:57;;;;;;;12.75;8.57;;;13.00;99.90;;;;;;4996213;28;20054;-82
2022/10/20 12:16:50;;;;;;;11.35;7.43;;;13.00;99.90;;;;;;4998407;28;20030;-82
2022/10/20 12:19:35;;;;;;;12.90;8.05;;;13.00;99.90;;;;;;4988820;28;20018;-83
2022/10/20 12:22:25;;;;;;;12.15;7.45;;;13.00;99.90;;;;;;4985447;28;20347;-82
2022/10/20 12:24:51;;;;;;;15.18;7.88;;;13.00;99.90;;;;;;4998350;28;20470;-82
2022/10/20 12:27:26;;;;;;;11.18;7.78;;;13.00;99.90;;;;;;5002112;28;20076;-82
2022/10/20 12:30:21;;;;;;;10.88;7.38;;;13.00;99.90;;;;;;4994168;28;20032;-82
2022/10/20 12:33:15;;;;;;;8.52;6.78;;;13.00;99.90;;;;;;4992769;28;20027;-84
2022/10/20 12:36:03;;;;;;;9.05;7.30;;;13.00;99.90;;;;;;5009981;28;20030;-82
2022/10/20 12:38:30;;;;;;;8.60;6.53;;;13.00;99.90;;;;;;5012210;28;20033;-82
2022/10/20 12:40:58;;;;;;;8.50;7.20;;;13.00;99.90;;;;;;5008951;28;20019;-83
2022/10/20 12:43:35;;;;;;;11.68;8.20;;;13.00;99.90;;;;;;4993759;28;20029;-83
2022/10/20 12:46:10;;;;;;;9.63;8.02;;;13.10;99.90;;;;;;4985823;28;20091;-81
2022/10/20 12:48:44;;;;;;;10.13;8.15;;;13.10;99.90;;;;;;4990844;28;20030;-83
2022/10/20 12:51:28;;;;;;;11.63;8.82;;;13.20;99.90;;;;;;4991521;28;20032;-82
2022/10/20 12:54:16;;;;;;;12.60;9.43;;;13.20;99.90;;;;;;4993212;28;20033;-83
2022/10/20 12:56:42;;;;;;;11.23;8.93;;;13.30;99.90;;;;;;4983989;28;20030;-82
2022/10/20 12:59:31;;;;;;;12.48;8.95;;;13.30;99.90;;;;;;4993148;28;20053;-82
2022/10/20 13:02:16;;;;;;;10.07;7.35;;;13.40;99.90;;;;;;4992592;28;20032;-82
2022/10/20 13:05:08;;;;;;;10.20;7.65;;;13.50;99.90;;;;;;5008693;28;20057;-83
2022/10/20 13:07:51;;;;;;;9.77;7.18;;;13.50;99.90;;;;;;4958688;28;20042;-83
2022/10/20 13:10:30;;;;;;;9.18;7.28;;;13.50;99.90;;;;;;5010196;28;20030;-83
2022/10/20 13:13:05;;;;;;;8.60;6.90;;;13.40;99.90;;;;;;5008877;28;20128;-83
2022/10/20 13:15:37;;;;;;;9.13;6.85;;;13.40;99.90;;;;;;5010324;28;20136;-83
2022/10/20 13:18:03;;;;;;;12.13;7.93;;;13.40;99.90;;;;;;4996140;28;20076;-82
2022/10/20 13:20:29;;;;;;;12.20;10.10;;;13.40;99.90;;;;;;5007545;28;20026;-84